Time;durP1;ratioP1;P1;durP2;ratioP2;P2;SDS_P1;SDS_P2;PMS_P1;PMS_P2;Temp;Humidity;BMP_temperature;BMP_pressure;BME280_temperature;BME280_humidity;BME280_pressure;Samples;Min_cycle;Max_cycle;Signal;HPM_P1;HPM_P2
2022/06/14 00:01:34;;;;;;;;;5.50;4.75;;;;;23.54;34.81;101730.16;4958927;28;45347;-59
2022/06/14 00:03:59;;;;;;;;;4.50;4.25;;;;;23.55;34.67;101735.41;4959148;28;45516;-54
2022/06/14 00:06:28;;;;;;;;;1.75;1.75;;;;;23.55;34.65;101737.16;4958804;28;46872;-62
2022/06/14 00:08:54;;;;;;;;;6.00;6.00;;;;;23.54;34.78;101730.16;4958567;28;45421;-60
2022/06/14 00:11:32;;;;;;;;;5.00;5.00;;;;;23.55;34.50;101730.09;4958826;28;45405;-60
2022/06/14 00:14:00;;;;;;;;;5.50;5.50;;;;;23.53;34.88;101726.69;4959176;28;45280;-54
2022/06/14 00:16:28;;;;;;;;;7.25;5.25;;;;;23.55;34.38;101726.59;4958724;28;46623;-56
2022/06/14 00:18:53;;;;;;;;;6.00;6.00;;;;;23.53;34.88;101725.84;4958520;28;45892;-57
2022/06/14 00:21:19;;;;;;;;;6.00;5.75;;;;;23.53;34.64;101731.97;4958594;28;45265;-59
2022/06/14 00:23:44;;;;;;;;;6.25;5.25;;;;;23.53;34.60;101728.47;4958679;28;45513;-62
2022/06/14 00:26:11;;;;;;;;;6.25;6.25;;;;;23.52;34.67;101724.13;4958324;28;45219;-56
2022/06/14 00:28:39;;;;;;;;;5.25;5.25;;;;;23.52;34.97;101721.47;4956880;28;45386;-59
2022/06/14 00:31:14;;;;;;;;;5.50;5.50;;;;;23.53;34.65;101726.69;4958447;28;45373;-62
2022/06/14 00:33:40;;;;;;;;;5.00;5.00;;;;;23.52;34.83;101724.97;4958552;28;45342;-55
2022/06/14 00:36:18;;;;;;;;;7.75;6.00;;;;;23.52;34.47;101734.72;4958121;28;45827;-60
2022/06/14 00:38:43;;;;;;;;;5.00;5.00;;;;;23.50;34.91;101726.00;4958248;28;45750;-63
2022/06/14 00:41:24;;;;;;;;;6.50;5.75;;;;;23.50;34.98;101733.94;4957598;28;45257;-62
2022/06/14 00:43:49;;;;;;;;;5.00;4.75;;;;;23.48;34.24;101736.66;4958382;28;45420;-57
2022/06/14 00:46:33;;;;;;;;;6.00;6.00;;;;;23.45;34.51;101729.72;4956716;28;46346;-62
2022/06/14 00:49:04;;;;;;;;;6.50;6.00;;;;;23.44;34.98;101740.41;4958304;28;45786;-59
2022/06/14 00:51:35;;;;;;;;;4.25;4.25;;;;;23.43;34.38;101742.19;4958389;28;45308;-56
2022/06/14 00:54:31;;;;;;;;;7.00;5.00;;;;;23.43;34.64;101730.75;4958569;28;45333;-59
2022/06/14 00:57:21;;;;;;;;;6.25;5.00;;;;;23.40;34.65;101731.78;4957757;28;47773;-57
2022/06/14 00:59:54;;;;;;;;;4.50;4.50;;;;;23.39;34.72;101724.78;4958058;28;45517;-54
2022/06/14 01:02:24;;;;;;;;;5.00;5.00;;;;;23.37;34.77;101721.34;4958049;28;45239;-58
2022/06/14 01:04:52;;;;;;;;;4.75;4.75;;;;;23.38;34.81;101722.19;4958152;28;45323;-54
2022/06/14 01:07:27;;;;;;;;;5.25;5.00;;;;;23.36;34.71;101724.94;4957817;28;45260;-59
2022/06/14 01:10:18;;;;;;;;;5.00;5.00;;;;;23.37;34.46;101726.66;4956406;28;45834;-61
2022/06/14 01:12:47;;;;;;;;;6.50;5.50;;;;;23.36;34.56;101735.53;4955330;28;45427;-62
2022/06/14 01:15:26;;;;;;;;;7.00;6.25;;;;;23.36;34.68;101722.28;4957978;28;45313;-55
2022/06/14 01:18:03;;;;;;;;;3.50;2.00;;;;;23.35;34.29;101717.09;4957703;28;46335;-58
2022/06/14 01:20:29;;;;;;;;;6.25;5.25;;;;;23.34;34.69;101721.50;4957851;28;45788;-63
2022/06/14 01:22:55;;;;;;;;;3.25;3.25;;;;;23.33;34.83;101714.50;4957862;28;45323;-57
2022/06/14 01:25:21;;;;;;;;;5.00;5.00;;;;;23.34;34.43;101721.50;4957732;28;45249;-63
2022/06/14 01:27:47;;;;;;;;;4.00;4.00;;;;;23.34;34.48;101718.88;4955836;28;47130;-62
2022/06/14 01:30:26;;;;;;;;;4.50;4.50;;;;;23.34;34.49;101710.94;4957483;28;45334;-57
2022/06/14 01:32:56;;;;;;;;;4.00;3.00;;;;;23.33;34.48;101708.38;4957653;28;45346;-52
2022/06/14 01:35:27;;;;;;;;;4.00;4.00;;;;;23.33;34.53;101701.28;4957880;28;45408;-52
2022/06/14 01:37:56;;;;;;;;;5.00;5.00;;;;;23.33;34.82;101703.94;4957412;28;46527;-55
2022/06/14 01:41:03;;;;;;;;;5.25;3.75;;;;;23.33;34.86;101708.38;4957270;28;45230;-52
2022/06/14 01:44:01;;;;;;;;;5.25;4.75;;;;;23.33;34.57;101700.44;4957613;28;45539;-60
2022/06/14 01:46:36;;;;;;;;;5.75;3.75;;;;;23.30;34.90;101698.81;4957610;28;45360;-58
2022/06/14 01:52:29;;;;;;;;;4.75;4.25;;;;;23.32;34.43;101696.94;4957875;28;45955;-59
2022/06/14 01:55:25;;;;;;;;;7.25;4.25;;;;;23.30;34.80;101686.44;4960944;28;45537;-63
2022/06/14 01:58:06;;;;;;;;;4.00;3.75;;;;;23.30;34.87;101680.31;4960979;28;45396;-60
2022/06/14 02:00:46;;;;;;;;;3.00;3.00;;;;;23.29;34.58;101681.25;4961032;28;46633;-63
2022/06/14 02:06:19;;;;;;;;;4.00;3.75;;;;;23.26;34.66;101671.66;4960564;28;45295;-64
2022/06/14 02:08:53;;;;;;;;;5.00;5.00;;;;;23.24;34.58;101673.56;4960900;28;45164;-57
2022/06/14 02:11:27;;;;;;;;;3.00;3.00;;;;;23.24;34.52;101677.97;4960391;28;45723;-64
2022/06/14 02:14:01;;;;;;;;;4.00;3.00;;;;;23.23;34.58;101670.97;4960574;28;45702;-61
2022/06/14 02:16:52;;;;;;;;;4.25;4.25;;;;;23.22;34.67;101670.13;4960738;28;45251;-60
2022/06/14 02:19:23;;;;;;;;;4.00;4.00;;;;;23.23;34.43;101665.69;4952246;28;45447;-63
2022/06/14 02:21:55;;;;;;;;;4.75;4.75;;;;;23.19;34.82;101670.28;4960323;28;46441;-60
2022/06/14 02:24:25;;;;;;;;;4.00;3.25;;;;;23.17;34.69;101667.72;4960160;28;45313;-62
2022/06/14 02:27:00;;;;;;;;;3.50;3.50;;;;;23.16;35.26;101660.72;4960423;28;45488;-57
2022/06/14 02:29:41;;;;;;;;;4.00;4.00;;;;;23.16;34.68;101665.13;4960324;28;45382;-61
2022/06/14 02:32:22;;;;;;;;;4.00;4.00;;;;;23.16;34.62;101665.13;4960434;28;46682;-59
2022/06/14 02:35:15;;;;;;;;;3.25;2.50;;;;;23.17;35.02;101669.50;4960156;28;45893;-60
2022/06/14 02:37:47;;;;;;;;;3.00;3.00;;;;;23.15;34.90;101659.00;4949126;28;45380;-61
2022/06/14 02:40:24;;;;;;;;;3.50;3.00;;;;;23.15;34.59;101663.44;4960404;28;45303;-60
2022/06/14 02:43:03;;;;;;;;;5.50;2.75;;;;;23.17;34.73;101666.84;4960002;28;46366;-57
2022/06/14 02:45:49;;;;;;;;;4.25;3.00;;;;;23.16;34.90;101660.72;4960016;28;45496;-59
2022/06/14 02:48:21;;;;;;;;;5.50;3.50;;;;;23.14;34.83;101657.28;4960070;28;45337;-62
2022/06/14 02:51:11;;;;;;;;;3.00;2.75;;;;;23.16;34.58;101659.84;4960196;28;45456;-53
2022/06/14 02:53:42;;;;;;;;;3.00;2.25;;;;;23.16;34.54;101665.13;4960089;28;45222;-61
2022/06/14 02:56:21;;;;;;;;;3.00;3.00;;;;;23.13;35.08;101658.22;4959736;28;45832;-52
2022/06/14 02:59:04;;;;;;;;;3.25;3.00;;;;;23.14;34.74;101654.66;4959827;28;45299;-61
2022/06/14 03:01:42;;;;;;;;;3.00;3.00;;;;;23.14;34.76;101657.28;4958439;28;45603;-60
2022/06/14 03:04:39;;;;;;;;;5.50;2.50;;;;;23.12;34.88;101656.50;4959165;28;47134;-60
2022/06/14 03:07:07;;;;;;;;;5.25;3.75;;;;;23.11;34.96;101654.81;4959988;28;45472;-57
2022/06/14 03:09:36;;;;;;;;;4.00;3.75;;;;;23.12;35.08;101653.03;4959573;28;45330;-64
2022/06/14 03:12:10;;;;;;;;;5.25;3.50;;;;;23.12;34.65;101647.75;4959773;28;45188;-53
2022/06/14 03:14:59;;;;;;;;;3.25;3.00;;;;;23.11;34.95;101652.16;4959852;28;45425;-53
2022/06/14 03:17:44;;;;;;;;;2.50;2.50;;;;;23.11;34.93;101648.69;4955592;28;45194;-53
2022/06/14 03:20:25;;;;;;;;;3.75;3.75;;;;;23.08;35.08;101647.06;4959663;28;45315;-53
2022/06/14 03:23:08;;;;;;;;;3.00;3.00;;;;;23.09;35.13;101648.78;4959735;28;45349;-52
2022/06/14 03:26:01;;;;;;;;;2.50;2.50;;;;;23.09;35.23;101647.91;4959448;28;45475;-55
2022/06/14 03:28:55;;;;;;;;;3.00;3.00;;;;;23.08;35.55;101640.91;4959107;28;45916;-59
2022/06/14 03:31:34;;;;;;;;;2.00;2.00;;;;;23.09;35.43;101643.47;4959458;28;45294;-56
2022/06/14 03:34:27;;;;;;;;;4.00;2.00;;;;;23.08;35.88;101647.06;4959533;28;45420;-53
2022/06/14 03:36:53;;;;;;;;;3.00;3.00;;;;;23.08;35.44;101639.13;4959240;28;46645;-55
2022/06/14 03:39:23;;;;;;;;;3.00;3.00;;;;;23.07;35.70;101637.41;4959215;28;45322;-59
2022/06/14 03:41:52;;;;;;;;;3.00;3.00;;;;;23.08;35.84;101633.84;4959276;28;45294;-61
2022/06/14 03:44:20;;;;;;;;;2.00;2.00;;;;;23.04;35.49;101629.63;4959385;28;45326;-58
2022/06/14 03:47:10;;;;;;;;;3.00;3.00;;;;;23.08;35.76;101633.84;4958682;28;46540;-53
2022/06/14 03:49:50;;;;;;;;;4.00;3.00;;;;;23.09;35.57;101630.25;4958869;28;45699;-58
2022/06/14 03:52:42;;;;;;;;;4.00;3.25;;;;;23.10;35.47;101631.94;4959094;28;45369;-60
2022/06/14 03:55:19;;;;;;;;;4.00;2.25;;;;;23.10;35.73;101633.75;4959526;28;45263;-57
2022/06/14 03:57:56;;;;;;;;;5.00;3.00;;;;;23.10;35.50;101631.94;4958971;28;45537;-58
2022/06/14 04:00:41;;;;;;;;;3.00;3.00;;;;;23.10;35.48;101629.28;4958797;28;45307;-61
2022/06/14 04:03:20;;;;;;;;;2.50;2.50;;;;;23.09;35.68;101632.91;4959402;28;45400;-59
2022/06/14 04:06:09;;;;;;;;;4.00;3.00;;;;;23.10;34.96;101631.94;4959163;28;45551;-60
2022/06/14 04:08:53;;;;;;;;;5.00;3.00;;;;;23.10;35.67;101634.59;4958463;28;47045;-58
2022/06/14 04:11:27;;;;;;;;;2.50;2.50;;;;;23.09;35.48;101638.19;4958920;28;45444;-58
2022/06/14 04:14:14;;;;;;;;;4.50;3.00;;;;;23.10;35.38;101641.66;4958852;28;45371;-57
2022/06/14 04:16:39;;;;;;;;;3.00;3.00;;;;;23.08;35.48;101639.13;4958557;28;45363;-57
2022/06/14 04:19:20;;;;;;;;;5.75;2.75;;;;;23.06;35.36;101643.63;4958449;28;45278;-59
2022/06/14 04:21:53;;;;;;;;;3.75;3.75;;;;;23.05;35.36;101644.56;4958523;28;45856;-59
2022/06/14 04:24:41;;;;;;;;;2.25;2.25;;;;;23.03;35.27;101641.16;4958859;28;45335;-58
2022/06/14 04:27:19;;;;;;;;;4.00;4.00;;;;;23.06;35.17;101643.63;4958891;28;45462;-59
2022/06/14 04:30:01;;;;;;;;;2.00;2.00;;;;;23.05;35.56;101641.91;4958178;28;45756;-58
2022/06/14 04:32:32;;;;;;;;;5.00;3.25;;;;;23.05;35.37;101639.28;4958506;28;45353;-59
2022/06/14 04:35:03;;;;;;;;;5.00;3.75;;;;;23.05;35.40;101636.63;4958426;28;45295;-58
2022/06/14 04:37:41;;;;;;;;;3.75;3.00;;;;;23.04;35.38;101629.63;4957412;28;45682;-60
2022/06/14 04:40:37;;;;;;;;;4.00;4.00;;;;;23.01;35.09;101640.38;4958354;28;45266;-61
2022/06/14 04:43:12;;;;;;;;;5.00;2.50;;;;;22.92;34.92;101635.56;4957501;28;45226;-61
2022/06/14 04:45:55;;;;;;;;;4.00;4.00;;;;;22.80;35.08;101632.66;4958355;28;45358;-61
2022/06/14 04:48:44;;;;;;;;;3.50;3.50;;;;;22.73;35.12;101635.69;4956989;28;45431;-59
2022/06/14 04:51:27;;;;;;;;;3.75;3.00;;;;;22.62;35.48;101626.53;4958133;28;47114;-59
2022/06/14 04:54:20;;;;;;;;;2.00;2.00;;;;;22.54;35.33;101629.56;4957971;28;45950;-56
2022/06/14 04:56:58;;;;;;;;;3.50;3.50;;;;;22.47;35.78;101629.97;4956764;28;45468;-56
2022/06/14 04:59:34;;;;;;;;;4.00;3.25;;;;;22.43;35.45;101637.22;4958420;28;45456;-58
2022/06/14 05:02:17;;;;;;;;;5.00;4.00;;;;;22.38;35.56;101623.34;4957952;28;45965;-59
2022/06/14 05:04:53;;;;;;;;;5.00;3.00;;;;;22.34;35.50;101630.56;4957958;28;45282;-57
2022/06/14 05:07:26;;;;;;;;;4.00;3.50;;;;;22.36;35.87;101630.47;4958058;28;45373;-56
2022/06/14 05:10:06;;;;;;;;;4.00;3.50;;;;;22.39;36.06;101625.03;4958170;28;45250;-56
2022/06/14 05:12:53;;;;;;;;;3.00;2.50;;;;;22.45;35.90;101626.56;4957687;28;45534;-58
2022/06/14 05:15:41;;;;;;;;;3.75;3.75;;;;;22.49;36.18;101628.94;4957467;28;45885;-59
2022/06/14 05:18:19;;;;;;;;;3.00;3.00;;;;;22.53;36.04;101622.59;4957835;28;45251;-56
2022/06/14 05:20:53;;;;;;;;;4.00;3.00;;;;;22.58;35.96;101622.34;4957221;28;45322;-57
2022/06/14 05:23:25;;;;;;;;;7.00;4.00;;;;;22.61;36.01;101622.16;4957440;28;46127;-58
2022/06/14 05:26:12;;;;;;;;;3.25;3.25;;;;;22.65;35.93;101622.91;4957423;28;45361;-57
2022/06/14 05:28:51;;;;;;;;;3.00;3.00;;;;;22.67;35.82;101623.63;4957553;28;45404;-58
2022/06/14 05:31:46;;;;;;;;;4.75;4.00;;;;;22.71;35.96;101625.19;4957992;28;45346;-54
2022/06/14 05:34:26;;;;;;;;;3.50;3.00;;;;;22.73;35.73;101620.69;4957584;28;46997;-58
2022/06/14 05:37:05;;;;;;;;;4.50;3.00;;;;;22.75;35.48;101624.13;4956130;28;45718;-57
2022/06/14 05:39:43;;;;;;;;;6.75;3.00;;;;;22.76;35.65;101620.53;4957490;28;45172;-58
2022/06/14 05:42:17;;;;;;;;;3.00;3.00;;;;;22.78;35.73;101626.56;4956575;28;45337;-55
2022/06/14 05:44:49;;;;;;;;;3.75;3.75;;;;;22.81;35.86;101626.44;4957834;28;46502;-58
2022/06/14 05:47:33;;;;;;;;;4.75;3.00;;;;;22.82;35.79;101625.50;4957706;28;45247;-58
2022/06/14 05:50:05;;;;;;;;;4.50;3.75;;;;;22.85;35.53;101630.63;4957540;28;45468;-58
2022/06/14 05:52:42;;;;;;;;;4.00;4.00;;;;;22.87;35.73;101632.34;4957428;28;45566;-58
2022/06/14 05:55:32;;;;;;;;;4.50;4.50;;;;;22.89;35.57;101635.72;4957054;28;46572;-57
2022/06/14 05:58:06;;;;;;;;;5.25;4.00;;;;;22.90;35.38;101632.16;4957368;28;45776;-58
2022/06/14 06:00:43;;;;;;;;;3.75;3.75;;;;;22.92;35.44;101636.44;4957279;28;45464;-56
2022/06/14 06:03:35;;;;;;;;;2.25;2.25;;;;;22.93;35.45;101632.84;4957300;28;45517;-57
2022/06/14 06:06:10;;;;;;;;;5.00;5.00;;;;;22.93;35.31;101627.56;4955628;28;47832;-57
2022/06/14 06:08:41;;;;;;;;;4.50;4.00;;;;;22.93;35.42;101630.19;4956964;28;45699;-56
2022/06/14 06:11:09;;;;;;;;;5.50;3.25;;;;;22.93;35.28;101626.72;4956958;28;45223;-57
2022/06/14 06:14:04;;;;;;;;;3.00;3.00;;;;;22.94;35.44;101626.63;4957198;28;45563;-55
2022/06/14 06:19:31;;;;;;;;;7.00;4.00;;;;;22.97;35.23;101625.63;4957118;28;45880;-53
2022/06/14 06:22:06;;;;;;;;;5.00;3.50;;;;;22.98;35.59;101619.41;4956839;28;45341;-57
2022/06/14 06:24:31;;;;;;;;;5.75;4.00;;;;;22.98;35.42;101619.41;4957062;28;45495;-54
2022/06/14 06:27:03;;;;;;;;;3.00;3.00;;;;;22.99;35.13;101618.44;4956790;28;46723;-56
2022/06/14 06:29:49;;;;;;;;;4.75;3.75;;;;;22.99;35.34;101610.50;4956558;28;45411;-55
2022/06/14 06:32:17;;;;;;;;;3.00;3.00;;;;;23.01;35.22;101606.88;4957029;28;45357;-57
2022/06/14 06:34:42;;;;;;;;;5.00;3.00;;;;;23.01;35.58;101603.34;4955866;28;45274;-57
2022/06/14 06:37:15;;;;;;;;;4.25;3.25;;;;;23.02;35.43;101597.13;4956731;28;46565;-56
2022/06/14 06:39:46;;;;;;;;;4.50;3.00;;;;;23.02;35.15;101594.50;4959222;28;45504;-58
2022/06/14 06:42:30;;;;;;;;;4.00;4.00;;;;;23.04;35.42;101597.06;4960207;28;45435;-54
2022/06/14 06:45:23;;;;;;;;;3.25;3.25;;;;;23.05;35.10;101609.31;4960390;28;45368;-55
2022/06/14 06:48:08;;;;;;;;;2.00;2.00;;;;;23.05;35.39;101604.91;4958696;28;47404;-52
2022/06/14 06:50:47;;;;;;;;;3.00;2.00;;;;;23.07;35.16;101610.97;4959892;28;45870;-50
2022/06/14 06:53:21;;;;;;;;;3.00;3.00;;;;;23.08;35.26;101610.03;4959763;28;45416;-51
2022/06/14 06:55:58;;;;;;;;;3.25;2.75;;;;;23.11;35.21;101603.72;4960471;28;45394;-56
2022/06/14 06:58:43;;;;;;;;;4.25;4.25;;;;;23.12;35.10;101611.56;4959648;28;45439;-56
2022/06/14 07:01:34;;;;;;;;;3.00;3.00;;;;;23.14;35.00;101614.13;4958165;28;45425;-54
2022/06/14 07:04:18;;;;;;;;;3.25;3.25;;;;;23.11;35.22;101596.63;4959790;28;45460;-56
2022/06/14 07:06:53;;;;;;;;;2.75;2.75;;;;;23.16;35.31;101605.19;4959970;28;45335;-55
2022/06/14 07:09:39;;;;;;;;;3.00;3.00;;;;;23.17;35.21;101604.25;4959770;28;45264;-56
2022/06/14 07:12:15;;;;;;;;;3.75;3.75;;;;;23.17;35.24;101604.25;4959642;28;45247;-55
2022/06/14 07:14:51;;;;;;;;;3.00;3.00;;;;;23.20;35.06;101602.41;4959780;28;45333;-55
2022/06/14 07:17:26;;;;;;;;;4.00;4.00;;;;;23.20;35.45;101591.84;4960045;28;45596;-55
2022/06/14 07:20:00;;;;;;;;;5.00;3.25;;;;;23.21;35.24;101593.50;4959629;28;45512;-54
2022/06/14 07:22:39;;;;;;;;;3.50;3.50;;;;;23.22;35.24;101584.63;4959477;28;45191;-56
2022/06/14 07:25:43;;;;;;;;;4.00;4.00;;;;;23.24;34.86;101588.06;4959405;28;45294;-54
2022/06/14 07:28:15;;;;;;;;;4.25;4.25;;;;;23.23;35.18;101591.63;4958744;28;45563;-56
2022/06/14 07:30:55;;;;;;;;;5.25;4.00;;;;;23.26;35.15;101597.59;4959098;28;46526;-57
2022/06/14 07:33:24;;;;;;;;;5.00;5.00;;;;;23.24;35.61;101586.28;4959626;28;45418;-58
2022/06/14 07:36:04;;;;;;;;;2.75;2.75;;;;;23.28;34.91;101589.59;4959545;28;45255;-58
2022/06/14 07:38:49;;;;;;;;;5.00;3.75;;;;;23.30;35.06;101590.38;4959430;28;45426;-54
2022/06/14 07:41:26;;;;;;;;;4.25;4.00;;;;;23.31;35.14;101589.44;4959035;28;46832;-56
2022/06/14 07:44:14;;;;;;;;;5.00;5.00;;;;;23.33;34.86;101581.41;4959408;28;45361;-55
2022/06/14 07:47:03;;;;;;;;;3.50;3.50;;;;;23.33;34.95;101579.63;4959148;28;45222;-58
2022/06/14 07:49:35;;;;;;;;;4.75;4.75;;;;;23.34;34.79;101577.84;4959214;28;45350;-56
2022/06/14 07:52:17;;;;;;;;;5.00;4.00;;;;;23.34;34.93;101573.38;4958879;28;45705;-58
2022/06/14 07:54:48;;;;;;;;;4.25;4.25;;;;;23.35;34.87;101580.38;4958825;28;45701;-57
2022/06/14 07:57:38;;;;;;;;;3.75;3.75;;;;;23.36;34.73;101579.44;4959046;28;45448;-57
2022/06/14 08:03:12;;;;;;;;;3.50;3.50;;;;;23.38;34.93;101574.06;4958874;28;45401;-58
2022/06/14 08:05:42;;;;;;;;;5.00;5.00;;;;;23.40;34.61;101573.06;4958944;28;45354;-58
2022/06/14 08:08:13;;;;;;;;;4.50;3.25;;;;;23.40;34.77;101557.19;4958950;28;45424;-56
2022/06/14 08:10:42;;;;;;;;;5.00;5.00;;;;;23.40;34.39;101558.97;4959088;28;45415;-58
2022/06/14 08:13:12;;;;;;;;;6.00;5.00;;;;;23.42;34.60;101552.66;4958619;28;46942;-59
2022/06/14 08:15:43;;;;;;;;;7.75;5.25;;;;;23.41;34.79;101553.59;4958784;28;45384;-57
2022/06/14 08:18:14;;;;;;;;;3.75;3.75;;;;;23.42;34.85;101547.38;4958576;28;45286;-55
2022/06/14 08:20:46;;;;;;;;;4.50;4.50;;;;;23.43;34.90;101549.06;4958912;28;45563;-56
2022/06/14 08:23:29;;;;;;;;;4.00;4.00;;;;;23.44;34.76;101547.28;4958462;28;45471;-56
2022/06/14 08:26:03;;;;;;;;;4.50;4.50;;;;;23.46;34.64;101548.06;4958879;28;45285;-58
2022/06/14 08:28:36;;;;;;;;;4.50;4.00;;;;;23.46;34.86;101543.59;4958412;28;45548;-56
2022/06/14 08:31:21;;;;;;;;;5.75;4.75;;;;;23.46;34.69;101553.34;4958982;28;45364;-57
2022/06/14 08:33:59;;;;;;;;;3.75;3.00;;;;;23.46;34.64;101554.19;4958493;28;47223;-57
2022/06/14 08:36:51;;;;;;;;;6.00;5.75;;;;;23.46;34.90;101548.88;4958859;28;45263;-57
2022/06/14 08:39:24;;;;;;;;;5.50;4.25;;;;;23.47;34.61;101545.31;4954461;28;45315;-56
2022/06/14 08:42:05;;;;;;;;;3.50;3.50;;;;;23.47;34.95;101545.31;4958579;28;45321;-57
2022/06/14 08:44:56;;;;;;;;;4.25;4.25;;;;;23.49;34.83;101545.22;4957983;28;46266;-58
2022/06/14 08:47:40;;;;;;;;;5.00;5.00;;;;;23.50;34.85;101540.78;4958291;28;45411;-58
2022/06/14 08:50:39;;;;;;;;;6.00;5.00;;;;;23.51;34.87;101537.22;4958176;28;45384;-57
2022/06/14 08:53:33;;;;;;;;;4.00;4.00;;;;;23.50;35.07;101531.03;4958225;28;45603;-53
2022/06/14 08:56:11;;;;;;;;;5.00;5.00;;;;;23.51;34.79;101538.03;4957738;28;46430;-57
2022/06/14 08:58:56;;;;;;;;;6.00;4.25;;;;;23.51;34.42;101534.56;4958084;28;45864;-57
2022/06/14 09:01:37;;;;;;;;;6.00;4.00;;;;;23.52;34.58;101533.63;4957587;28;45230;-57
2022/06/14 09:04:32;;;;;;;;;8.75;5.00;;;;;23.55;34.64;101538.72;4958188;28;45362;-56
2022/06/14 09:07:32;;;;;;;;;6.00;4.75;;;;;23.55;34.60;101539.59;4957706;28;46083;-49
2022/06/14 09:10:12;;;;;;;;;4.25;4.25;;;;;23.57;34.14;101542.13;4957964;28;45773;-56
2022/06/14 09:12:56;;;;;;;;;7.00;4.00;;;;;23.57;34.69;101534.19;4957875;28;45256;-57
2022/06/14 09:16:00;;;;;;;;;4.75;4.75;;;;;23.57;34.25;101535.06;4958116;28;45248;-57
2022/06/14 09:18:58;;;;;;;;;6.25;5.00;;;;;23.58;34.35;101538.56;4957530;28;46647;-58
2022/06/14 09:21:59;;;;;;;;;5.00;5.00;;;;;23.56;34.72;101529.84;4957944;28;45204;-55
2022/06/14 09:24:34;;;;;;;;;3.50;3.25;;;;;23.59;34.14;101534.97;4956790;28;45447;-58
2022/06/14 09:27:25;;;;;;;;;5.75;5.00;;;;;23.60;34.20;101532.22;4957996;28;45779;-51
2022/06/14 09:30:09;;;;;;;;;4.50;4.50;;;;;23.61;34.37;101525.16;4957218;28;45624;-55
2022/06/14 09:33:09;;;;;;;;;3.50;3.50;;;;;23.61;34.33;101528.63;4957680;28;45321;-57
2022/06/14 09:35:34;;;;;;;;;4.00;4.00;;;;;23.61;34.14;101523.34;4948906;28;45575;-56
2022/06/14 09:38:27;;;;;;;;;4.25;3.75;;;;;23.63;34.32;101531.22;4957684;28;45427;-54
2022/06/14 09:41:14;;;;;;;;;4.75;4.00;;;;;23.62;34.26;101522.41;4957408;28;45422;-57
2022/06/14 09:44:07;;;;;;;;;5.00;4.00;;;;;23.64;34.51;101532.91;4956177;28;45822;-58
2022/06/14 09:46:51;;;;;;;;;5.75;4.00;;;;;23.64;34.16;101522.34;4957528;28;45420;-58
2022/06/14 09:49:20;;;;;;;;;4.25;3.25;;;;;23.65;34.34;101529.31;4957399;28;45412;-58
2022/06/14 09:52:03;;;;;;;;;7.00;6.00;;;;;23.66;34.08;101528.38;4957161;28;46813;-55
2022/06/14 09:54:40;;;;;;;;;5.50;5.00;;;;;23.67;34.04;101529.25;4957484;28;45399;-58
2022/06/14 09:57:08;;;;;;;;;4.25;4.25;;;;;23.67;34.07;101521.28;4957366;28;45359;-58
2022/06/14 09:59:55;;;;;;;;;4.00;4.00;;;;;23.67;34.14;101522.13;4957595;28;45728;-58
2022/06/14 10:02:42;;;;;;;;;5.25;4.75;;;;;23.68;34.36;101523.84;4957181;28;45328;-53
2022/06/14 10:05:25;;;;;;;;;6.75;4.75;;;;;23.67;34.45;101514.19;4957111;28;45795;-55
2022/06/14 10:08:17;;;;;;;;;5.50;5.50;;;;;23.69;34.41;101508.84;4957260;28;45273;-58
2022/06/14 10:11:13;;;;;;;;;5.00;4.00;;;;;23.70;34.00;101510.53;4947268;28;45439;-58
2022/06/14 10:14:04;;;;;;;;;5.00;5.00;;;;;23.70;34.08;101506.09;4956765;28;47495;-58
2022/06/14 10:16:30;;;;;;;;;3.75;2.50;;;;;23.71;34.04;101497.22;4960855;28;45438;-54
2022/06/14 10:19:22;;;;;;;;;6.00;5.67;;;;;23.71;34.12;101501.63;4960525;28;45468;-56
2022/06/14 10:22:06;;;;;;;;;6.25;5.25;;;;;23.72;33.99;101498.91;4960737;28;45310;-55
2022/06/14 10:24:44;;;;;;;;;5.50;3.75;;;;;23.72;33.97;101496.28;4960405;28;45480;-50
2022/06/14 10:30:28;;;;;;;;;4.25;4.25;;;;;23.72;34.46;101500.69;4960374;28;45325;-58
2022/06/14 10:33:00;;;;;;;;;6.50;5.00;;;;;23.74;34.08;101497.03;4960593;28;45480;-56
2022/06/14 10:35:41;;;;;;;;;4.50;4.50;;;;;23.75;34.25;101497.88;4959951;28;46222;-57
2022/06/14 10:38:19;;;;;;;;;5.75;4.50;;;;;23.75;34.00;101488.16;4960162;28;45378;-57
2022/06/14 10:40:57;;;;;;;;;5.00;5.00;;;;;23.76;34.43;101489.00;4960427;28;45313;-56
2022/06/14 10:43:25;;;;;;;;;4.25;4.25;;;;;23.76;34.13;101496.94;4960420;28;45283;-57
2022/06/14 10:45:59;;;;;;;;;6.00;5.25;;;;;23.75;34.10;101477.56;4959832;28;46423;-55
2022/06/14 10:49:09;;;;;;;;;5.25;5.00;;;;;23.77;34.04;101478.31;4960002;28;45742;-57
2022/06/14 10:52:02;;;;;;;;;5.00;4.00;;;;;23.77;34.03;101472.19;4954505;28;45278;-57
2022/06/14 10:54:47;;;;;;;;;8.00;6.50;;;;;23.78;34.04;101468.59;4960549;28;45314;-57
2022/06/14 10:57:38;;;;;;;;;5.00;5.00;;;;;23.77;33.87;101465.06;4960027;28;45660;-57
2022/06/14 11:00:06;;;;;;;;;6.25;4.50;;;;;23.79;34.38;101467.66;4960190;28;45228;-56
2022/06/14 11:02:34;;;;;;;;;6.00;5.25;;;;;23.80;34.06;101468.50;4960258;28;45627;-56
2022/06/14 11:05:08;;;;;;;;;7.00;5.25;;;;;23.80;34.12;101464.06;4960237;28;45510;-55
2022/06/14 11:07:58;;;;;;;;;5.25;5.25;;;;;23.80;33.86;101447.31;4959991;28;46519;-53
2022/06/14 11:10:23;;;;;;;;;5.75;5.75;;;;;23.81;33.83;101449.88;4959698;28;45805;-55
2022/06/14 11:13:14;;;;;;;;;6.75;5.25;;;;;23.82;33.96;101445.44;4959735;28;45356;-56
2022/06/14 11:15:51;;;;;;;;;7.00;6.00;;;;;23.83;33.96;101441.84;4959821;28;45449;-54
2022/06/14 11:18:43;;;;;;;;;5.75;5.75;;;;;23.83;33.96;101436.56;4959492;28;45405;-53
2022/06/14 11:21:46;;;;;;;;;6.25;6.25;;;;;23.83;33.79;101439.19;4959483;28;45427;-56
2022/06/14 11:24:20;;;;;;;;;5.50;5.50;;;;;23.84;33.65;101422.38;4959209;28;45347;-57
2022/06/14 11:27:03;;;;;;;;;7.25;7.00;;;;;23.84;33.79;101422.38;4959789;28;45270;-52
2022/06/14 11:29:42;;;;;;;;;7.00;7.00;;;;;23.84;33.84;101414.44;4958942;28;46063;-57
2022/06/14 11:32:23;;;;;;;;;5.75;5.75;;;;;23.84;33.90;101423.22;4959360;28;45379;-53
2022/06/14 11:35:06;;;;;;;;;7.75;6.50;;;;;23.85;33.77;101424.06;4959449;28;45242;-53
2022/06/14 11:37:34;;;;;;;;;5.75;5.00;;;;;23.85;33.78;101424.91;4959855;28;45326;-52
2022/06/14 11:40:13;;;;;;;;;7.00;6.00;;;;;23.85;34.27;101414.31;4959121;28;46753;-53
2022/06/14 11:42:58;;;;;;;;;7.00;7.00;;;;;23.87;33.90;101408.94;4959125;28;45384;-53
2022/06/14 11:45:42;;;;;;;;;6.75;6.50;;;;;23.89;33.94;101399.09;4958907;28;45435;-54
2022/06/14 11:48:19;;;;;;;;;2.50;2.50;;;;;23.88;33.75;101392.97;4958055;28;45452;-53
2022/06/14 11:51:01;;;;;;;;;8.75;7.25;;;;;23.88;33.97;101397.41;4958913;28;46258;-54
2022/06/14 11:54:05;;;;;;;;;8.00;6.25;;;;;23.88;33.97;101392.97;4959037;28;45696;-54
2022/06/14 11:56:30;;;;;;;;;6.75;6.75;;;;;23.89;34.06;101383.22;4937605;28;45364;-55
2022/06/14 11:58:58;;;;;;;;;7.00;6.75;;;;;23.89;33.94;101388.50;4954735;28;45252;-55
2022/06/14 12:01:35;;;;;;;;;6.25;6.25;;;;;23.90;34.05;101390.22;4958876;28;46497;-57
2022/06/14 12:04:15;;;;;;;;;7.25;7.00;;;;;23.90;33.98;101390.22;4958760;28;45965;-54
2022/06/14 12:07:02;;;;;;;;;5.25;5.25;;;;;23.91;33.93;101389.28;4959014;28;45281;-56
2022/06/14 12:09:49;;;;;;;;;6.50;6.50;;;;;23.91;33.76;101376.03;4958978;28;45398;-54
2022/06/14 12:12:36;;;;;;;;;7.75;7.00;;;;;23.91;33.76;101381.34;4958750;28;45650;-54
2022/06/14 12:15:10;;;;;;;;;9.00;8.00;;;;;23.91;33.93;101378.69;4958598;28;45858;-54
2022/06/14 12:17:42;;;;;;;;;8.50;7.00;;;;;23.92;33.79;101377.75;4959043;28;45390;-57
2022/06/14 12:20:21;;;;;;;;;4.50;4.50;;;;;23.91;33.41;101374.25;4958775;28;45518;-51
2022/06/14 12:22:59;;;;;;;;;7.25;7.00;;;;;23.91;33.67;101366.31;4958548;28;46597;-57
2022/06/14 12:28:36;;;;;;;;;6.00;6.00;;;;;23.94;33.62;101358.16;4958333;28;45287;-57
2022/06/14 12:31:12;;;;;;;;;7.00;7.00;;;;;23.94;33.52;101349.38;4958715;28;45262;-58
2022/06/14 12:33:44;;;;;;;;;6.25;6.25;;;;;23.93;33.85;101348.53;4958461;28;45388;-51
2022/06/14 12:36:43;;;;;;;;;6.25;6.25;;;;;23.94;33.99;101344.09;4957474;28;46012;-55
2022/06/14 12:39:18;;;;;;;;;6.25;4.00;;;;;23.94;33.48;101344.09;4958664;28;45176;-56